sensor_id;sensor_type;location;lat;lon;timestamp;P1;durP1;ratioP1;P2;durP2;ratioP2
72960;SDS011;61141;46.204;19.774;2023-07-28T00:02:58;3.00;;;1.00;;
72960;SDS011;61141;46.204;19.774;2023-07-28T00:06:01;3.00;;;1.00;;
72960;SDS011;61141;46.204;19.774;2023-07-28T00:09:04;2.50;;;0.68;;
72960;SDS011;61141;46.204;19.774;2023-07-28T00:12:07;2.70;;;0.80;;
72960;SDS011;61141;46.204;19.774;2023-07-28T00:15:09;2.70;;;0.88;;
72960;SDS011;61141;46.204;19.774;2023-07-28T00:18:12;2.83;;;1.03;;
72960;SDS011;61141;46.204;19.774;2023-07-28T00:21:15;2.85;;;0.98;;
72960;SDS011;61141;46.204;19.774;2023-07-28T00:24:18;3.60;;;1.58;;
72960;SDS011;61141;46.204;19.774;2023-07-28T00:27:21;3.47;;;1.40;;
72960;SDS011;61141;46.204;19.774;2023-07-28T00:30:24;2.90;;;1.10;;
72960;SDS011;61141;46.204;19.774;2023-07-28T00:33:28;2.93;;;1.00;;
72960;SDS011;61141;46.204;19.774;2023-07-28T00:36:31;3.03;;;1.00;;
72960;SDS011;61141;46.204;19.774;2023-07-28T00:39:34;3.95;;;1.73;;
72960;SDS011;61141;46.204;19.774;2023-07-28T00:42:37;4.57;;;2.95;;
72960;SDS011;61141;46.204;19.774;2023-07-28T00:45:40;3.05;;;1.23;;
72960;SDS011;61141;46.204;19.774;2023-07-28T00:48:44;2.80;;;0.80;;
72960;SDS011;61141;46.204;19.774;2023-07-28T00:51:47;2.85;;;0.95;;
72960;SDS011;61141;46.204;19.774;2023-07-28T00:54:51;3.35;;;1.37;;
72960;SDS011;61141;46.204;19.774;2023-07-28T00:57:54;3.00;;;1.10;;
72960;SDS011;61141;46.204;19.774;2023-07-28T01:00:57;3.75;;;1.85;;
72960;SDS011;61141;46.204;19.774;2023-07-28T01:04:00;3.67;;;1.63;;
72960;SDS011;61141;46.204;19.774;2023-07-28T01:07:10;2.72;;;0.85;;
72960;SDS011;61141;46.204;19.774;2023-07-28T01:10:18;2.80;;;0.95;;
72960;SDS011;61141;46.204;19.774;2023-07-28T01:13:28;6.47;;;2.22;;
72960;SDS011;61141;46.204;19.774;2023-07-28T01:16:31;2.60;;;0.80;;
72960;SDS011;61141;46.204;19.774;2023-07-28T01:19:35;3.40;;;1.50;;
72960;SDS011;61141;46.204;19.774;2023-07-28T01:26:03;3.15;;;1.33;;
72960;SDS011;61141;46.204;19.774;2023-07-28T01:29:08;2.85;;;1.05;;
72960;SDS011;61141;46.204;19.774;2023-07-28T01:32:13;2.50;;;0.70;;
72960;SDS011;61141;46.204;19.774;2023-07-28T01:35:16;3.10;;;1.20;;
72960;SDS011;61141;46.204;19.774;2023-07-28T01:38:19;3.08;;;1.10;;
72960;SDS011;61141;46.204;19.774;2023-07-28T01:41:22;3.22;;;1.23;;
72960;SDS011;61141;46.204;19.774;2023-07-28T01:44:25;3.08;;;1.12;;
72960;SDS011;61141;46.204;19.774;2023-07-28T01:47:28;2.78;;;0.95;;
72960;SDS011;61141;46.204;19.774;2023-07-28T01:50:32;3.03;;;1.23;;
72960;SDS011;61141;46.204;19.774;2023-07-28T01:53:34;3.30;;;1.37;;
72960;SDS011;61141;46.204;19.774;2023-07-28T01:56:37;2.80;;;0.95;;
72960;SDS011;61141;46.204;19.774;2023-07-28T01:59:40;2.53;;;0.73;;
72960;SDS011;61141;46.204;19.774;2023-07-28T02:02:43;3.58;;;1.10;;
72960;SDS011;61141;46.204;19.774;2023-07-28T02:05:46;2.40;;;0.60;;
72960;SDS011;61141;46.204;19.774;2023-07-28T02:08:49;2.72;;;0.93;;
72960;SDS011;61141;46.204;19.774;2023-07-28T02:11:52;3.00;;;1.10;;
72960;SDS011;61141;46.204;19.774;2023-07-28T02:14:55;2.90;;;1.05;;
72960;SDS011;61141;46.204;19.774;2023-07-28T02:17:58;3.03;;;1.25;;
72960;SDS011;61141;46.204;19.774;2023-07-28T02:21:01;3.17;;;1.23;;
72960;SDS011;61141;46.204;19.774;2023-07-28T02:24:04;3.03;;;1.10;;
72960;SDS011;61141;46.204;19.774;2023-07-28T02:27:07;13.02;;;1.42;;
72960;SDS011;61141;46.204;19.774;2023-07-28T02:30:10;3.08;;;1.12;;
72960;SDS011;61141;46.204;19.774;2023-07-28T02:33:12;2.75;;;0.98;;
72960;SDS011;61141;46.204;19.774;2023-07-28T02:36:15;2.90;;;1.00;;
72960;SDS011;61141;46.204;19.774;2023-07-28T02:39:18;3.22;;;1.30;;
72960;SDS011;61141;46.204;19.774;2023-07-28T02:42:21;2.53;;;0.75;;
72960;SDS011;61141;46.204;19.774;2023-07-28T02:45:26;3.12;;;1.25;;
72960;SDS011;61141;46.204;19.774;2023-07-28T02:48:29;2.65;;;0.90;;
72960;SDS011;61141;46.204;19.774;2023-07-28T02:51:31;2.70;;;0.87;;
72960;SDS011;61141;46.204;19.774;2023-07-28T02:54:36;2.47;;;0.80;;
72960;SDS011;61141;46.204;19.774;2023-07-28T02:57:39;3.55;;;1.37;;
72960;SDS011;61141;46.204;19.774;2023-07-28T03:00:43;2.70;;;0.77;;
72960;SDS011;61141;46.204;19.774;2023-07-28T03:03:46;3.85;;;1.67;;
72960;SDS011;61141;46.204;19.774;2023-07-28T03:06:50;3.20;;;1.23;;
72960;SDS011;61141;46.204;19.774;2023-07-28T03:09:53;2.92;;;1.00;;
72960;SDS011;61141;46.204;19.774;2023-07-28T03:12:56;2.53;;;0.70;;
72960;SDS011;61141;46.204;19.774;2023-07-28T03:15:59;2.90;;;1.08;;
72960;SDS011;61141;46.204;19.774;2023-07-28T03:19:02;3.33;;;1.37;;
72960;SDS011;61141;46.204;19.774;2023-07-28T03:22:04;2.97;;;1.07;;
72960;SDS011;61141;46.204;19.774;2023-07-28T03:25:08;6.37;;;3.67;;
72960;SDS011;61141;46.204;19.774;2023-07-28T03:28:11;3.85;;;1.35;;
72960;SDS011;61141;46.204;19.774;2023-07-28T03:31:14;3.12;;;1.05;;
72960;SDS011;61141;46.204;19.774;2023-07-28T03:34:17;2.90;;;1.02;;
72960;SDS011;61141;46.204;19.774;2023-07-28T03:37:20;2.67;;;0.87;;
72960;SDS011;61141;46.204;19.774;2023-07-28T03:40:23;3.03;;;1.12;;
72960;SDS011;61141;46.204;19.774;2023-07-28T03:43:26;2.30;;;0.60;;
72960;SDS011;61141;46.204;19.774;2023-07-28T03:46:29;3.25;;;1.30;;
72960;SDS011;61141;46.204;19.774;2023-07-28T03:49:32;3.10;;;1.23;;
72960;SDS011;61141;46.204;19.774;2023-07-28T03:52:35;3.17;;;1.27;;
72960;SDS011;61141;46.204;19.774;2023-07-28T03:55:38;2.53;;;0.70;;
72960;SDS011;61141;46.204;19.774;2023-07-28T03:58:41;3.40;;;1.15;;
72960;SDS011;61141;46.204;19.774;2023-07-28T04:01:44;2.62;;;0.85;;
72960;SDS011;61141;46.204;19.774;2023-07-28T04:04:52;2.58;;;0.77;;
72960;SDS011;61141;46.204;19.774;2023-07-28T04:07:56;2.90;;;1.00;;
72960;SDS011;61141;46.204;19.774;2023-07-28T04:10:59;3.20;;;1.30;;
72960;SDS011;61141;46.204;19.774;2023-07-28T04:14:01;3.53;;;1.60;;
72960;SDS011;61141;46.204;19.774;2023-07-28T04:17:04;2.78;;;0.98;;
72960;SDS011;61141;46.204;19.774;2023-07-28T04:20:08;3.05;;;1.20;;
72960;SDS011;61141;46.204;19.774;2023-07-28T04:23:11;3.20;;;1.30;;
72960;SDS011;61141;46.204;19.774;2023-07-28T04:26:15;2.80;;;1.00;;
72960;SDS011;61141;46.204;19.774;2023-07-28T04:29:19;3.25;;;1.30;;
72960;SDS011;61141;46.204;19.774;2023-07-28T04:32:22;2.92;;;1.10;;
72960;SDS011;61141;46.204;19.774;2023-07-28T04:35:26;4.15;;;1.15;;
72960;SDS011;61141;46.204;19.774;2023-07-28T04:38:29;3.10;;;1.20;;
72960;SDS011;61141;46.204;19.774;2023-07-28T04:41:33;2.75;;;0.93;;
72960;SDS011;61141;46.204;19.774;2023-07-28T04:44:37;5.22;;;1.92;;
72960;SDS011;61141;46.204;19.774;2023-07-28T04:47:42;2.45;;;0.60;;
72960;SDS011;61141;46.204;19.774;2023-07-28T04:50:45;2.87;;;1.00;;
72960;SDS011;61141;46.204;19.774;2023-07-28T04:53:49;3.33;;;1.37;;
72960;SDS011;61141;46.204;19.774;2023-07-28T04:56:52;3.37;;;1.40;;
72960;SDS011;61141;46.204;19.774;2023-07-28T04:59:58;3.08;;;1.17;;
72960;SDS011;61141;46.204;19.774;2023-07-28T05:03:01;2.70;;;0.80;;
72960;SDS011;61141;46.204;19.774;2023-07-28T05:06:06;2.55;;;0.75;;
72960;SDS011;61141;46.204;19.774;2023-07-28T05:09:08;2.97;;;1.17;;
72960;SDS011;61141;46.204;19.774;2023-07-28T05:12:11;3.17;;;1.20;;
72960;SDS011;61141;46.204;19.774;2023-07-28T05:15:14;3.62;;;1.52;;
72960;SDS011;61141;46.204;19.774;2023-07-28T05:18:18;2.92;;;1.02;;
72960;SDS011;61141;46.204;19.774;2023-07-28T05:21:21;3.60;;;1.48;;
72960;SDS011;61141;46.204;19.774;2023-07-28T05:24:24;3.00;;;0.97;;
72960;SDS011;61141;46.204;19.774;2023-07-28T05:27:27;3.08;;;1.05;;
72960;SDS011;61141;46.204;19.774;2023-07-28T05:30:30;5.80;;;1.70;;
72960;SDS011;61141;46.204;19.774;2023-07-28T05:33:33;2.90;;;0.90;;
72960;SDS011;61141;46.204;19.774;2023-07-28T05:36:37;3.70;;;1.67;;
72960;SDS011;61141;46.204;19.774;2023-07-28T05:39:39;3.47;;;1.50;;
72960;SDS011;61141;46.204;19.774;2023-07-28T05:42:43;2.80;;;0.98;;
72960;SDS011;61141;46.204;19.774;2023-07-28T05:45:46;3.50;;;1.12;;
72960;SDS011;61141;46.204;19.774;2023-07-28T05:48:49;2.62;;;0.70;;
72960;SDS011;61141;46.204;19.774;2023-07-28T05:51:52;3.45;;;1.45;;
72960;SDS011;61141;46.204;19.774;2023-07-28T05:54:55;3.40;;;1.40;;
72960;SDS011;61141;46.204;19.774;2023-07-28T05:57:58;3.25;;;1.12;;
72960;SDS011;61141;46.204;19.774;2023-07-28T06:01:01;3.45;;;1.42;;
72960;SDS011;61141;46.204;19.774;2023-07-28T06:04:05;3.70;;;1.62;;
72960;SDS011;61141;46.204;19.774;2023-07-28T06:07:09;4.07;;;1.92;;
72960;SDS011;61141;46.204;19.774;2023-07-28T06:10:13;3.60;;;1.50;;
72960;SDS011;61141;46.204;19.774;2023-07-28T06:13:15;3.37;;;1.30;;
72960;SDS011;61141;46.204;19.774;2023-07-28T06:16:18;4.53;;;1.42;;
72960;SDS011;61141;46.204;19.774;2023-07-28T06:19:21;6.28;;;2.15;;
72960;SDS011;61141;46.204;19.774;2023-07-28T06:22:27;4.18;;;2.03;;
72960;SDS011;61141;46.204;19.774;2023-07-28T06:25:29;3.77;;;1.70;;
72960;SDS011;61141;46.204;19.774;2023-07-28T06:28:33;3.53;;;1.52;;
72960;SDS011;61141;46.204;19.774;2023-07-28T06:31:36;3.95;;;1.80;;
72960;SDS011;61141;46.204;19.774;2023-07-28T06:34:39;3.62;;;1.65;;
72960;SDS011;61141;46.204;19.774;2023-07-28T06:37:41;3.42;;;1.37;;
72960;SDS011;61141;46.204;19.774;2023-07-28T06:40:44;4.37;;;2.13;;
72960;SDS011;61141;46.204;19.774;2023-07-28T06:43:47;3.78;;;1.75;;
72960;SDS011;61141;46.204;19.774;2023-07-28T06:46:53;3.75;;;1.70;;
72960;SDS011;61141;46.204;19.774;2023-07-28T06:49:56;3.10;;;0.93;;
72960;SDS011;61141;46.204;19.774;2023-07-28T06:52:59;3.95;;;1.70;;
72960;SDS011;61141;46.204;19.774;2023-07-28T06:56:02;3.85;;;1.70;;
72960;SDS011;61141;46.204;19.774;2023-07-28T06:59:06;3.90;;;1.90;;
72960;SDS011;61141;46.204;19.774;2023-07-28T07:02:17;3.85;;;1.77;;
72960;SDS011;61141;46.204;19.774;2023-07-28T07:05:20;4.00;;;1.73;;
72960;SDS011;61141;46.204;19.774;2023-07-28T07:08:23;4.03;;;2.03;;
72960;SDS011;61141;46.204;19.774;2023-07-28T07:11:26;4.00;;;1.90;;
72960;SDS011;61141;46.204;19.774;2023-07-28T07:14:28;3.60;;;1.58;;
72960;SDS011;61141;46.204;19.774;2023-07-28T07:17:31;3.80;;;1.67;;
72960;SDS011;61141;46.204;19.774;2023-07-28T07:20:35;4.35;;;2.08;;
72960;SDS011;61141;46.204;19.774;2023-07-28T07:23:39;4.55;;;2.40;;
72960;SDS011;61141;46.204;19.774;2023-07-28T07:26:56;4.17;;;2.17;;
72960;SDS011;61141;46.204;19.774;2023-07-28T07:29:59;4.40;;;2.20;;
72960;SDS011;61141;46.204;19.774;2023-07-28T07:33:02;5.90;;;2.20;;
72960;SDS011;61141;46.204;19.774;2023-07-28T07:36:05;4.05;;;1.95;;
72960;SDS011;61141;46.204;19.774;2023-07-28T07:39:08;4.82;;;2.62;;
72960;SDS011;61141;46.204;19.774;2023-07-28T07:42:11;3.60;;;1.50;;
72960;SDS011;61141;46.204;19.774;2023-07-28T07:45:16;3.35;;;1.25;;
72960;SDS011;61141;46.204;19.774;2023-07-28T07:48:19;4.70;;;2.53;;
72960;SDS011;61141;46.204;19.774;2023-07-28T07:51:22;4.00;;;1.92;;
72960;SDS011;61141;46.204;19.774;2023-07-28T07:54:26;3.83;;;2.00;;
72960;SDS011;61141;46.204;19.774;2023-07-28T07:57:28;4.87;;;2.83;;
72960;SDS011;61141;46.204;19.774;2023-07-28T08:00:32;4.43;;;2.42;;
72960;SDS011;61141;46.204;19.774;2023-07-28T08:03:35;4.85;;;2.67;;
72960;SDS011;61141;46.204;19.774;2023-07-28T08:06:40;4.70;;;2.40;;
72960;SDS011;61141;46.204;19.774;2023-07-28T08:09:43;4.82;;;2.55;;
72960;SDS011;61141;46.204;19.774;2023-07-28T08:12:46;4.23;;;2.10;;
72960;SDS011;61141;46.204;19.774;2023-07-28T08:15:50;4.47;;;2.35;;
72960;SDS011;61141;46.204;19.774;2023-07-28T08:18:52;4.50;;;2.20;;
72960;SDS011;61141;46.204;19.774;2023-07-28T08:21:55;3.70;;;1.60;;
72960;SDS011;61141;46.204;19.774;2023-07-28T08:24:58;4.68;;;2.62;;
72960;SDS011;61141;46.204;19.774;2023-07-28T08:28:01;4.20;;;2.20;;
72960;SDS011;61141;46.204;19.774;2023-07-28T08:31:04;4.60;;;2.47;;
72960;SDS011;61141;46.204;19.774;2023-07-28T08:34:07;3.85;;;1.87;;
72960;SDS011;61141;46.204;19.774;2023-07-28T08:37:10;4.60;;;2.47;;
72960;SDS011;61141;46.204;19.774;2023-07-28T08:40:13;4.68;;;2.50;;
72960;SDS011;61141;46.204;19.774;2023-07-28T08:43:16;4.70;;;2.40;;
72960;SDS011;61141;46.204;19.774;2023-07-28T08:46:19;4.07;;;2.03;;
72960;SDS011;61141;46.204;19.774;2023-07-28T08:49:23;6.22;;;3.55;;
72960;SDS011;61141;46.204;19.774;2023-07-28T08:52:25;4.47;;;2.30;;
72960;SDS011;61141;46.204;19.774;2023-07-28T08:55:28;3.95;;;1.87;;
72960;SDS011;61141;46.204;19.774;2023-07-28T08:58:31;3.93;;;1.83;;
72960;SDS011;61141;46.204;19.774;2023-07-28T09:01:38;5.40;;;3.50;;
72960;SDS011;61141;46.204;19.774;2023-07-28T09:04:43;4.68;;;2.53;;
72960;SDS011;61141;46.204;19.774;2023-07-28T09:07:46;4.68;;;2.40;;
72960;SDS011;61141;46.204;19.774;2023-07-28T09:10:50;4.45;;;2.28;;
72960;SDS011;61141;46.204;19.774;2023-07-28T09:13:54;4.57;;;2.47;;
72960;SDS011;61141;46.204;19.774;2023-07-28T09:17:11;4.95;;;2.90;;
72960;SDS011;61141;46.204;19.774;2023-07-28T09:20:16;4.68;;;2.65;;
72960;SDS011;61141;46.204;19.774;2023-07-28T09:23:26;4.32;;;2.22;;
72960;SDS011;61141;46.204;19.774;2023-07-28T09:26:36;4.75;;;2.97;;
72960;SDS011;61141;46.204;19.774;2023-07-28T09:29:40;4.00;;;2.00;;
72960;SDS011;61141;46.204;19.774;2023-07-28T09:32:46;4.32;;;2.37;;
72960;SDS011;61141;46.204;19.774;2023-07-28T09:35:51;4.43;;;2.33;;
72960;SDS011;61141;46.204;19.774;2023-07-28T09:38:54;4.43;;;2.20;;
72960;SDS011;61141;46.204;19.774;2023-07-28T09:41:58;4.10;;;2.22;;
72960;SDS011;61141;46.204;19.774;2023-07-28T09:45:03;4.67;;;2.50;;
72960;SDS011;61141;46.204;19.774;2023-07-28T09:48:09;3.78;;;1.77;;
72960;SDS011;61141;46.204;19.774;2023-07-28T09:51:15;4.82;;;2.97;;
72960;SDS011;61141;46.204;19.774;2023-07-28T09:54:25;4.62;;;2.28;;
72960;SDS011;61141;46.204;19.774;2023-07-28T09:57:32;4.32;;;2.17;;
72960;SDS011;61141;46.204;19.774;2023-07-28T10:00:41;5.40;;;2.87;;
72960;SDS011;61141;46.204;19.774;2023-07-28T10:03:45;3.92;;;1.87;;
72960;SDS011;61141;46.204;19.774;2023-07-28T10:06:50;4.57;;;2.62;;
72960;SDS011;61141;46.204;19.774;2023-07-28T10:09:59;4.90;;;2.67;;
72960;SDS011;61141;46.204;19.774;2023-07-28T10:13:03;4.50;;;2.45;;
72960;SDS011;61141;46.204;19.774;2023-07-28T10:16:06;4.10;;;1.97;;
72960;SDS011;61141;46.204;19.774;2023-07-28T10:19:11;4.12;;;2.17;;
72960;SDS011;61141;46.204;19.774;2023-07-28T10:22:14;4.40;;;2.42;;
72960;SDS011;61141;46.204;19.774;2023-07-28T10:25:23;4.70;;;2.28;;
72960;SDS011;61141;46.204;19.774;2023-07-28T10:28:31;4.72;;;2.58;;
72960;SDS011;61141;46.204;19.774;2023-07-28T10:31:50;5.40;;;3.20;;
72960;SDS011;61141;46.204;19.774;2023-07-28T10:35:01;4.05;;;2.00;;
72960;SDS011;61141;46.204;19.774;2023-07-28T10:41:36;3.87;;;1.73;;
72960;SDS011;61141;46.204;19.774;2023-07-28T10:44:39;4.90;;;2.80;;
72960;SDS011;61141;46.204;19.774;2023-07-28T10:47:43;4.80;;;2.90;;
72960;SDS011;61141;46.204;19.774;2023-07-28T10:50:46;4.87;;;2.90;;
72960;SDS011;61141;46.204;19.774;2023-07-28T10:53:54;4.87;;;2.70;;
72960;SDS011;61141;46.204;19.774;2023-07-28T10:57:01;4.30;;;2.28;;
72960;SDS011;61141;46.204;19.774;2023-07-28T11:00:08;5.07;;;3.12;;
72960;SDS011;61141;46.204;19.774;2023-07-28T11:03:12;3.47;;;1.40;;
72960;SDS011;61141;46.204;19.774;2023-07-28T11:06:16;3.92;;;1.83;;
72960;SDS011;61141;46.204;19.774;2023-07-28T11:09:21;4.30;;;2.20;;
72960;SDS011;61141;46.204;19.774;2023-07-28T11:12:26;8.52;;;3.10;;
72960;SDS011;61141;46.204;19.774;2023-07-28T11:15:29;4.78;;;2.60;;
72960;SDS011;61141;46.204;19.774;2023-07-28T11:18:33;4.67;;;2.73;;
72960;SDS011;61141;46.204;19.774;2023-07-28T11:21:37;4.40;;;2.28;;
72960;SDS011;61141;46.204;19.774;2023-07-28T11:24:40;4.45;;;2.45;;
72960;SDS011;61141;46.204;19.774;2023-07-28T11:27:44;4.75;;;2.75;;
72960;SDS011;61141;46.204;19.774;2023-07-28T11:30:50;4.70;;;2.58;;
72960;SDS011;61141;46.204;19.774;2023-07-28T11:33:53;5.20;;;3.23;;
72960;SDS011;61141;46.204;19.774;2023-07-28T11:36:56;4.90;;;2.60;;
72960;SDS011;61141;46.204;19.774;2023-07-28T11:40:00;5.12;;;3.10;;
72960;SDS011;61141;46.204;19.774;2023-07-28T11:43:05;4.50;;;2.45;;
72960;SDS011;61141;46.204;19.774;2023-07-28T11:46:31;4.62;;;2.70;;
72960;SDS011;61141;46.204;19.774;2023-07-28T11:49:45;5.47;;;3.20;;
72960;SDS011;61141;46.204;19.774;2023-07-28T11:52:51;4.55;;;2.45;;
72960;SDS011;61141;46.204;19.774;2023-07-28T11:55:54;4.35;;;2.05;;
72960;SDS011;61141;46.204;19.774;2023-07-28T11:58:57;4.70;;;2.60;;
72960;SDS011;61141;46.204;19.774;2023-07-28T12:02:01;4.12;;;2.10;;
72960;SDS011;61141;46.204;19.774;2023-07-28T12:05:14;5.13;;;3.00;;
72960;SDS011;61141;46.204;19.774;2023-07-28T12:08:35;4.12;;;2.10;;
72960;SDS011;61141;46.204;19.774;2023-07-28T12:11:42;4.37;;;2.12;;
72960;SDS011;61141;46.204;19.774;2023-07-28T12:14:49;5.07;;;3.22;;
72960;SDS011;61141;46.204;19.774;2023-07-28T12:18:14;4.70;;;2.78;;
72960;SDS011;61141;46.204;19.774;2023-07-28T12:21:20;4.23;;;2.00;;
72960;SDS011;61141;46.204;19.774;2023-07-28T12:24:23;4.60;;;2.53;;
72960;SDS011;61141;46.204;19.774;2023-07-28T12:27:27;4.32;;;2.22;;
72960;SDS011;61141;46.204;19.774;2023-07-28T12:30:33;4.30;;;2.30;;
72960;SDS011;61141;46.204;19.774;2023-07-28T12:33:36;4.65;;;2.45;;
72960;SDS011;61141;46.204;19.774;2023-07-28T12:36:41;4.80;;;2.57;;
72960;SDS011;61141;46.204;19.774;2023-07-28T12:39:47;4.50;;;2.60;;
72960;SDS011;61141;46.204;19.774;2023-07-28T12:42:53;4.35;;;2.35;;
72960;SDS011;61141;46.204;19.774;2023-07-28T12:46:00;4.85;;;2.83;;
72960;SDS011;61141;46.204;19.774;2023-07-28T12:49:06;7.45;;;3.22;;
72960;SDS011;61141;46.204;19.774;2023-07-28T12:52:09;4.63;;;2.73;;
72960;SDS011;61141;46.204;19.774;2023-07-28T12:55:21;5.18;;;2.97;;
72960;SDS011;61141;46.204;19.774;2023-07-28T12:58:24;4.93;;;3.17;;
72960;SDS011;61141;46.204;19.774;2023-07-28T13:01:30;4.35;;;2.17;;
72960;SDS011;61141;46.204;19.774;2023-07-28T13:04:32;4.62;;;2.47;;
72960;SDS011;61141;46.204;19.774;2023-07-28T13:07:38;4.57;;;2.57;;
72960;SDS011;61141;46.204;19.774;2023-07-28T13:10:45;5.47;;;3.28;;
72960;SDS011;61141;46.204;19.774;2023-07-28T13:13:51;4.72;;;2.78;;
72960;SDS011;61141;46.204;19.774;2023-07-28T13:16:54;4.82;;;2.83;;
72960;SDS011;61141;46.204;19.774;2023-07-28T13:19:57;4.78;;;2.80;;
72960;SDS011;61141;46.204;19.774;2023-07-28T13:23:00;4.57;;;2.30;;
72960;SDS011;61141;46.204;19.774;2023-07-28T13:26:02;5.55;;;3.05;;
72960;SDS011;61141;46.204;19.774;2023-07-28T13:29:06;4.60;;;2.67;;
72960;SDS011;61141;46.204;19.774;2023-07-28T13:32:16;5.15;;;2.87;;
72960;SDS011;61141;46.204;19.774;2023-07-28T13:35:25;4.97;;;2.83;;
72960;SDS011;61141;46.204;19.774;2023-07-28T13:38:28;4.63;;;2.40;;
72960;SDS011;61141;46.204;19.774;2023-07-28T13:41:31;5.50;;;3.28;;
72960;SDS011;61141;46.204;19.774;2023-07-28T13:44:34;4.50;;;2.60;;
72960;SDS011;61141;46.204;19.774;2023-07-28T13:47:37;5.03;;;2.72;;
72960;SDS011;61141;46.204;19.774;2023-07-28T13:50:40;5.37;;;3.22;;
72960;SDS011;61141;46.204;19.774;2023-07-28T13:53:42;4.43;;;2.40;;
72960;SDS011;61141;46.204;19.774;2023-07-28T13:57:06;4.50;;;2.30;;
72960;SDS011;61141;46.204;19.774;2023-07-28T14:00:08;5.05;;;3.00;;
72960;SDS011;61141;46.204;19.774;2023-07-28T14:03:12;4.95;;;2.67;;
72960;SDS011;61141;46.204;19.774;2023-07-28T14:06:16;4.47;;;2.40;;
72960;SDS011;61141;46.204;19.774;2023-07-28T14:09:19;5.00;;;2.63;;
72960;SDS011;61141;46.204;19.774;2023-07-28T14:12:22;4.70;;;2.70;;
72960;SDS011;61141;46.204;19.774;2023-07-28T14:15:25;4.97;;;2.90;;
72960;SDS011;61141;46.204;19.774;2023-07-28T14:18:28;4.62;;;2.55;;
72960;SDS011;61141;46.204;19.774;2023-07-28T14:21:31;4.45;;;2.37;;
72960;SDS011;61141;46.204;19.774;2023-07-28T14:24:34;4.37;;;2.13;;
72960;SDS011;61141;46.204;19.774;2023-07-28T14:27:37;4.60;;;2.45;;
72960;SDS011;61141;46.204;19.774;2023-07-28T14:30:40;4.80;;;2.60;;
72960;SDS011;61141;46.204;19.774;2023-07-28T14:33:43;5.00;;;2.90;;
72960;SDS011;61141;46.204;19.774;2023-07-28T14:36:45;4.12;;;2.05;;
72960;SDS011;61141;46.204;19.774;2023-07-28T14:39:48;5.10;;;3.27;;
72960;SDS011;61141;46.204;19.774;2023-07-28T14:42:51;4.47;;;1.95;;
72960;SDS011;61141;46.204;19.774;2023-07-28T14:45:54;5.40;;;2.58;;
72960;SDS011;61141;46.204;19.774;2023-07-28T14:48:57;5.00;;;2.70;;
72960;SDS011;61141;46.204;19.774;2023-07-28T14:52:00;6.47;;;3.10;;
72960;SDS011;61141;46.204;19.774;2023-07-28T14:55:03;4.13;;;1.90;;
72960;SDS011;61141;46.204;19.774;2023-07-28T14:58:06;4.37;;;2.15;;
72960;SDS011;61141;46.204;19.774;2023-07-28T15:01:09;4.93;;;2.90;;
72960;SDS011;61141;46.204;19.774;2023-07-28T15:04:13;5.25;;;2.83;;
72960;SDS011;61141;46.204;19.774;2023-07-28T15:07:18;3.97;;;1.95;;
72960;SDS011;61141;46.204;19.774;2023-07-28T15:10:21;4.60;;;2.50;;
72960;SDS011;61141;46.204;19.774;2023-07-28T15:13:24;4.30;;;2.25;;
72960;SDS011;61141;46.204;19.774;2023-07-28T15:16:27;5.18;;;3.35;;
72960;SDS011;61141;46.204;19.774;2023-07-28T15:19:30;5.05;;;3.15;;
72960;SDS011;61141;46.204;19.774;2023-07-28T15:22:33;4.68;;;2.75;;
72960;SDS011;61141;46.204;19.774;2023-07-28T15:25:36;4.80;;;2.40;;
72960;SDS011;61141;46.204;19.774;2023-07-28T15:28:44;5.65;;;3.22;;
72960;SDS011;61141;46.204;19.774;2023-07-28T15:31:47;4.47;;;2.47;;
72960;SDS011;61141;46.204;19.774;2023-07-28T15:34:50;5.28;;;3.28;;
72960;SDS011;61141;46.204;19.774;2023-07-28T15:37:53;5.40;;;3.37;;
72960;SDS011;61141;46.204;19.774;2023-07-28T15:40:56;4.23;;;2.13;;
72960;SDS011;61141;46.204;19.774;2023-07-28T15:44:00;5.30;;;2.45;;
72960;SDS011;61141;46.204;19.774;2023-07-28T15:47:03;5.53;;;3.08;;
72960;SDS011;61141;46.204;19.774;2023-07-28T15:50:06;4.97;;;2.90;;
72960;SDS011;61141;46.204;19.774;2023-07-28T15:53:10;5.30;;;3.37;;
72960;SDS011;61141;46.204;19.774;2023-07-28T15:56:12;5.27;;;3.27;;
72960;SDS011;61141;46.204;19.774;2023-07-28T15:59:15;4.87;;;2.95;;
72960;SDS011;61141;46.204;19.774;2023-07-28T16:02:18;4.85;;;2.75;;
72960;SDS011;61141;46.204;19.774;2023-07-28T16:05:21;4.53;;;2.30;;
72960;SDS011;61141;46.204;19.774;2023-07-28T16:08:23;4.72;;;2.92;;
72960;SDS011;61141;46.204;19.774;2023-07-28T16:11:28;4.17;;;2.17;;
72960;SDS011;61141;46.204;19.774;2023-07-28T16:14:32;4.65;;;2.50;;
72960;SDS011;61141;46.204;19.774;2023-07-28T16:17:35;4.80;;;2.70;;
72960;SDS011;61141;46.204;19.774;2023-07-28T16:20:38;5.05;;;3.05;;
72960;SDS011;61141;46.204;19.774;2023-07-28T16:23:41;4.95;;;2.40;;
72960;SDS011;61141;46.204;19.774;2023-07-28T16:26:44;4.33;;;2.33;;
72960;SDS011;61141;46.204;19.774;2023-07-28T16:29:49;4.37;;;2.25;;
72960;SDS011;61141;46.204;19.774;2023-07-28T16:32:53;4.87;;;2.85;;
72960;SDS011;61141;46.204;19.774;2023-07-28T16:35:56;4.80;;;2.78;;
72960;SDS011;61141;46.204;19.774;2023-07-28T16:38:59;4.85;;;2.75;;
72960;SDS011;61141;46.204;19.774;2023-07-28T16:42:02;5.10;;;3.13;;
72960;SDS011;61141;46.204;19.774;2023-07-28T16:45:06;5.18;;;3.37;;
72960;SDS011;61141;46.204;19.774;2023-07-28T16:48:09;4.80;;;2.90;;
72960;SDS011;61141;46.204;19.774;2023-07-28T16:51:12;4.60;;;2.45;;
72960;SDS011;61141;46.204;19.774;2023-07-28T16:54:15;4.50;;;2.58;;
72960;SDS011;61141;46.204;19.774;2023-07-28T16:57:18;5.00;;;3.03;;
72960;SDS011;61141;46.204;19.774;2023-07-28T17:00:21;4.43;;;2.33;;
72960;SDS011;61141;46.204;19.774;2023-07-28T17:03:24;4.53;;;2.47;;
72960;SDS011;61141;46.204;19.774;2023-07-28T17:06:27;5.10;;;2.92;;
72960;SDS011;61141;46.204;19.774;2023-07-28T17:09:30;4.85;;;2.62;;
72960;SDS011;61141;46.204;19.774;2023-07-28T17:12:33;4.63;;;2.30;;
72960;SDS011;61141;46.204;19.774;2023-07-28T17:15:36;5.18;;;3.03;;
72960;SDS011;61141;46.204;19.774;2023-07-28T17:18:42;3.95;;;1.87;;
72960;SDS011;61141;46.204;19.774;2023-07-28T17:21:49;4.97;;;2.67;;
72960;SDS011;61141;46.204;19.774;2023-07-28T17:24:52;4.53;;;2.60;;
72960;SDS011;61141;46.204;19.774;2023-07-28T17:27:54;4.30;;;1.80;;
72960;SDS011;61141;46.204;19.774;2023-07-28T17:30:57;4.62;;;2.30;;
72960;SDS011;61141;46.204;19.774;2023-07-28T17:34:00;4.97;;;2.62;;
72960;SDS011;61141;46.204;19.774;2023-07-28T17:37:03;4.55;;;2.40;;
72960;SDS011;61141;46.204;19.774;2023-07-28T17:40:06;4.78;;;2.05;;
72960;SDS011;61141;46.204;19.774;2023-07-28T17:43:10;4.67;;;2.53;;
72960;SDS011;61141;46.204;19.774;2023-07-28T17:46:13;4.70;;;2.62;;
72960;SDS011;61141;46.204;19.774;2023-07-28T17:49:16;4.30;;;2.25;;
72960;SDS011;61141;46.204;19.774;2023-07-28T17:52:19;4.60;;;2.45;;
72960;SDS011;61141;46.204;19.774;2023-07-28T17:55:22;6.10;;;3.25;;
72960;SDS011;61141;46.204;19.774;2023-07-28T17:58:26;4.37;;;2.33;;
72960;SDS011;61141;46.204;19.774;2023-07-28T18:01:29;4.50;;;2.47;;
72960;SDS011;61141;46.204;19.774;2023-07-28T18:04:31;4.68;;;2.35;;
72960;SDS011;61141;46.204;19.774;2023-07-28T18:07:34;4.37;;;2.47;;
72960;SDS011;61141;46.204;19.774;2023-07-28T18:10:37;4.30;;;2.17;;
72960;SDS011;61141;46.204;19.774;2023-07-28T18:13:41;4.37;;;2.27;;
72960;SDS011;61141;46.204;19.774;2023-07-28T18:16:45;4.43;;;2.42;;
72960;SDS011;61141;46.204;19.774;2023-07-28T18:19:48;4.87;;;2.78;;